Time;durP1;ratioP1;P1;durP2;ratioP2;P2;SDS_P1;SDS_P2;PMS_P1;PMS_P2;Temp;Humidity;BMP_temperature;BMP_pressure;BME280_temperature;BME280_humidity;BME280_pressure;Samples;Min_cycle;Max_cycle;Signal;HPM_P1;HPM_P2
2022/12/15 00:40:03;;;;;;;39.42;13.98;;;;;;;;;;5005823;28;20076;-61
2022/12/15 00:42:28;;;;;;;38.33;14.10;;;;;;;;;;5005748;28;20033;-62
2022/12/15 00:44:54;;;;;;;41.97;14.43;;;;;;;;;;5009141;28;20025;-61
2022/12/15 00:47:19;;;;;;;46.20;15.55;;;;;;;;;;5007605;28;20057;-63
2022/12/15 01:22:34;;;;;;;44.78;15.68;;;;;;;;;;5009300;28;20393;-61
2022/12/15 01:24:59;;;;;;;40.80;15.20;;;;;;;;;;5010522;28;20033;-61
2022/12/15 01:27:25;;;;;;;36.78;13.43;;;;;;;;;;5005779;28;20416;-61
2022/12/15 01:29:50;;;;;;;38.42;13.90;;;;;;;;;;5008673;28;20014;-61
2022/12/15 01:32:15;;;;;;;39.57;14.50;;;;;;;;;;5008729;28;20053;-62
2022/12/15 01:34:40;;;;;;;40.43;15.23;;;;;;;;;;5008338;28;20026;-61
2022/12/15 01:37:05;;;;;;;42.87;15.17;;;;;;;;;;5010338;28;20044;-61
2022/12/15 01:40:43;;;;;;;41.87;14.33;;;;;;;;;;5008101;28;20494;-61
2022/12/15 01:42:16;;;;;;;40.33;15.05;;;;;;;;;;5006621;28;20030;-61
2022/12/15 01:44:42;;;;;;;45.60;16.87;;;;;;;;;;5008295;28;20018;-61
2022/12/15 01:47:11;;;;;;;43.95;14.90;;;;;;;;;;5009172;28;20123;-61
2022/12/15 01:49:37;;;;;;;43.10;14.88;;;;;;;;;;5010365;28;20021;-60
2022/12/15 01:52:04;;;;;;;43.67;15.70;;;;;;;;;;5010642;28;20017;-61
2022/12/15 01:54:33;;;;;;;45.55;15.88;;;;;;;;;;5006902;28;20029;-61
2022/12/15 01:57:01;;;;;;;41.33;14.35;;;;;;;;;;5005031;28;20021;-61
2022/12/15 01:59:33;;;;;;;45.80;15.77;;;;;;;;;;5004665;28;20018;-61
2022/12/15 02:01:58;;;;;;;43.25;14.52;;;;;;;;;;5008088;28;20125;-60
2022/12/15 02:04:24;;;;;;;38.60;14.23;;;;;;;;;;5006091;28;20109;-60
2022/12/15 02:06:49;;;;;;;47.53;16.05;;;;;;;;;;5002368;28;20476;-60
2022/12/15 02:09:15;;;;;;;39.35;14.75;;;;;;;;;;5008948;28;20539;-61
2022/12/15 02:11:48;;;;;;;41.47;14.63;;;;;;;;;;5006435;28;20076;-61
2022/12/15 02:14:17;;;;;;;41.58;15.50;;;;;;;;;;5009838;28;20042;-61
2022/12/15 02:16:52;;;;;;;38.05;13.07;;;;;;;;;;4994258;28;20028;-61
2022/12/15 02:19:24;;;;;;;41.83;15.05;;;;;;;;;;5008794;28;20034;-61
2022/12/15 02:22:08;;;;;;;39.45;13.85;;;;;;;;;;5022530;28;20033;-61
2022/12/15 02:24:51;;;;;;;40.60;15.38;;;;;;;;;;5024663;28;20021;-61
2022/12/15 02:27:42;;;;;;;34.53;13.20;;;;;;;;;;5007230;28;20021;-61
2022/12/15 02:30:25;;;;;;;40.67;15.90;;;;;;;;;;5008466;28;20098;-61
2022/12/15 02:33:01;;;;;;;38.22;14.48;;;;;;;;;;5008169;28;20112;-61
2022/12/15 02:35:30;;;;;;;47.13;16.40;;;;;;;;;;5010021;28;20037;-61
2022/12/15 02:37:56;;;;;;;42.58;17.33;;;;;;;;;;5008313;28;20037;-61
2022/12/15 02:40:21;;;;;;;35.38;14.65;;;;;;;;;;5012827;28;20022;-61
2022/12/15 02:42:54;;;;;;;41.90;16.57;;;;;;;;;;5012925;28;20057;-60
2022/12/15 02:45:23;;;;;;;38.03;15.40;;;;;;;;;;5011983;28;20033;-61
2022/12/15 02:48:01;;;;;;;40.75;16.25;;;;;;;;;;5010550;28;20026;-61
2022/12/15 02:50:45;;;;;;;39.70;15.20;;;;;;;;;;5011410;28;20039;-62
2022/12/15 02:53:27;;;;;;;41.67;15.50;;;;;;;;;;5010445;28;20111;-62
2022/12/15 02:55:58;;;;;;;38.85;13.80;;;;;;;;;;5010232;28;20036;-61
2022/12/15 02:58:38;;;;;;;35.70;13.65;;;;;;;;;;5009340;28;20099;-62
2022/12/15 03:01:17;;;;;;;33.63;12.95;;;;;;;;;;5005970;28;20029;-62
2022/12/15 03:03:43;;;;;;;36.20;13.85;;;;;;;;;;5011525;28;20610;-62
2022/12/15 03:06:09;;;;;;;35.63;13.80;;;;;;;;;;5011078;28;20033;-62
2022/12/15 03:08:34;;;;;;;37.38;12.88;;;;;;;;;;5011545;28;20104;-61
2022/12/15 03:11:00;;;;;;;32.75;11.85;;;;;;;;;;5010860;28;20022;-61
2022/12/15 03:13:25;;;;;;;33.55;12.23;;;;;;;;;;5011492;28;20025;-62
2022/12/15 03:15:51;;;;;;;34.93;13.53;;;;;;;;;;5011006;28;20396;-61
2022/12/15 03:18:16;;;;;;;37.38;12.48;;;;;;;;;;5013377;28;20044;-61
2022/12/15 03:20:41;;;;;;;35.72;12.60;;;;;;;;;;5011564;28;20033;-61
2022/12/15 03:23:07;;;;;;;37.42;12.98;;;;;;;;;;5013241;28;20385;-61
2022/12/15 03:25:32;;;;;;;37.73;13.87;;;;;;;;;;5011931;28;20076;-61
2022/12/15 03:27:57;;;;;;;38.10;13.27;;;;;;;;;;5010541;28;20579;-61
2022/12/15 03:30:22;;;;;;;39.67;13.53;;;;;;;;;;5009440;28;20018;-61
2022/12/15 03:32:47;;;;;;;39.13;13.47;;;;;;;;;;5012077;28;20026;-60
2022/12/15 03:35:13;;;;;;;35.13;12.73;;;;;;;;;;5011285;28;20109;-61
2022/12/15 03:37:38;;;;;;;39.80;13.50;;;;;;;;;;5012700;28;20048;-61
2022/12/15 03:40:04;;;;;;;38.20;13.55;;;;;;;;;;5009640;28;20033;-61
2022/12/15 03:42:47;;;;;;;37.35;13.63;;;;;;;;;;5010221;28;20080;-60
2022/12/15 03:45:13;;;;;;;38.20;13.73;;;;;;;;;;5011352;28;20060;-60
2022/12/15 03:47:41;;;;;;;40.60;14.73;;;;;;;;;;5012701;28;20470;-60
2022/12/15 03:50:07;;;;;;;38.50;14.68;;;;;;;;;;5010744;28;20029;-60
2022/12/15 03:52:32;;;;;;;37.22;13.32;;;;;;;;;;5009116;28;20022;-61
2022/12/15 03:54:57;;;;;;;45.17;14.80;;;;;;;;;;5009972;28;20611;-61
2022/12/15 03:57:22;;;;;;;39.03;13.33;;;;;;;;;;5011423;28;20485;-61
2022/12/15 03:59:47;;;;;;;39.07;14.63;;;;;;;;;;5011214;28;20014;-60
2022/12/15 04:02:12;;;;;;;34.97;13.27;;;;;;;;;;5009458;28;20113;-61
2022/12/15 04:04:38;;;;;;;40.00;13.07;;;;;;;;;;5012357;28;20060;-60
2022/12/15 04:07:03;;;;;;;33.77;13.57;;;;;;;;;;5011381;28;20112;-61
2022/12/15 04:09:28;;;;;;;33.33;12.20;;;;;;;;;;5011338;28;20026;-61
2022/12/15 04:11:53;;;;;;;35.97;12.33;;;;;;;;;;5007840;28;20113;-60
2022/12/15 04:14:18;;;;;;;34.70;12.60;;;;;;;;;;5009625;28;20313;-60
2022/12/15 04:16:43;;;;;;;34.37;11.67;;;;;;;;;;5009430;28;20473;-61
2022/12/15 04:21:52;;;;;;;35.40;12.73;;;;;;;;;;4992159;28;20117;-61
2022/12/15 05:32:36;;;;;;;36.13;12.10;;;;;;;;;;5000310;28;20024;-63
2022/12/15 05:35:02;;;;;;;35.83;12.88;;;;;;;;;;5003705;28;20487;-60
2022/12/15 05:37:27;;;;;;;34.70;11.70;;;;;;;;;;5003216;28;20061;-63
2022/12/15 05:39:52;;;;;;;38.80;11.75;;;;;;;;;;5002476;28;20032;-62
2022/12/15 05:42:18;;;;;;;36.67;12.27;;;;;;;;;;5003034;28;20057;-62
2022/12/15 05:44:43;;;;;;;32.85;11.88;;;;;;;;;;5005478;28;20029;-63
2022/12/15 05:47:10;;;;;;;34.70;11.95;;;;;;;;;;5007024;28;20022;-62
2022/12/15 05:49:35;;;;;;;31.70;10.65;;;;;;;;;;4997940;28;20029;-62
2022/12/15 05:52:00;;;;;;;29.43;11.53;;;;;;;;;;5002481;28;20032;-61
2022/12/15 05:54:25;;;;;;;32.67;12.40;;;;;;;;;;5004028;28;20052;-61
2022/12/15 05:56:51;;;;;;;31.20;11.00;;;;;;;;;;5003829;28;20038;-61
2022/12/15 05:59:16;;;;;;;32.13;11.70;;;;;;;;;;5004288;28;20041;-60
2022/12/15 06:01:41;;;;;;;32.83;12.20;;;;;;;;;;5003030;28;20022;-62
2022/12/15 06:04:07;;;;;;;35.40;11.77;;;;;;;;;;5004632;28;20022;-62
2022/12/15 06:06:32;;;;;;;33.20;11.33;;;;;;;;;;5003191;28;20054;-63
2022/12/15 06:08:57;;;;;;;33.00;12.18;;;;;;;;;;5007158;28;20057;-62
2022/12/15 06:11:22;;;;;;;35.77;11.77;;;;;;;;;;5006721;28;20461;-62
2022/12/15 06:13:48;;;;;;;31.77;11.02;;;;;;;;;;5001820;28;20070;-62
2022/12/15 06:16:17;;;;;;;36.77;11.50;;;;;;;;;;5008869;28;20034;-62
2022/12/15 06:18:43;;;;;;;29.52;10.43;;;;;;;;;;5010342;28;20022;-62
2022/12/15 06:21:11;;;;;;;32.60;10.23;;;;;;;;;;5012152;28;20433;-63
2022/12/15 06:23:36;;;;;;;29.30;10.50;;;;;;;;;;5009860;28;20053;-62
2022/12/15 06:26:10;;;;;;;27.85;9.88;;;;;;;;;;5011861;28;20057;-63
2022/12/15 06:28:36;;;;;;;28.63;10.07;;;;;;;;;;5014338;28;20018;-64
2022/12/15 06:31:02;;;;;;;31.03;11.67;;;;;;;;;;5014327;28;20026;-61
2022/12/15 06:33:28;;;;;;;32.70;10.40;;;;;;;;;;5013260;28;20018;-62
2022/12/15 06:35:53;;;;;;;33.85;11.60;;;;;;;;;;5012049;28;20056;-62
2022/12/15 06:38:19;;;;;;;29.40;10.87;;;;;;;;;;5014284;28;20014;-62
2022/12/15 06:40:44;;;;;;;35.80;11.13;;;;;;;;;;5014130;28;20435;-62
2022/12/15 06:43:09;;;;;;;28.90;10.87;;;;;;;;;;5014405;28;20025;-62
2022/12/15 06:45:34;;;;;;;30.50;10.93;;;;;;;;;;5012110;28;20064;-63
2022/12/15 06:47:59;;;;;;;30.40;10.93;;;;;;;;;;5013426;28;20030;-62
2022/12/15 06:50:25;;;;;;;32.70;11.93;;;;;;;;;;5013992;28;20022;-62
2022/12/15 06:52:50;;;;;;;30.05;10.15;;;;;;;;;;5014003;28;20030;-61
2022/12/15 06:55:16;;;;;;;30.33;10.25;;;;;;;;;;5013224;28;20018;-62
2022/12/15 06:57:41;;;;;;;27.40;9.68;;;;;;;;;;5012542;28;20103;-62
2022/12/15 07:00:07;;;;;;;28.53;10.53;;;;;;;;;;5009501;28;20510;-62
2022/12/15 07:02:32;;;;;;;33.30;11.65;;;;;;;;;;5012285;28;20029;-61
2022/12/15 07:04:57;;;;;;;30.33;10.83;;;;;;;;;;5013300;28;20037;-62
2022/12/15 07:07:22;;;;;;;29.98;10.80;;;;;;;;;;5011693;28;20101;-62
2022/12/15 07:09:48;;;;;;;31.17;10.37;;;;;;;;;;5015187;28;20029;-61
2022/12/15 07:12:13;;;;;;;27.57;10.60;;;;;;;;;;5012277;28;20476;-62
2022/12/15 07:14:38;;;;;;;31.13;10.97;;;;;;;;;;5015690;28;20069;-63
2022/12/15 07:17:03;;;;;;;28.63;10.05;;;;;;;;;;5009039;28;20030;-62
2022/12/15 07:19:28;;;;;;;30.00;11.00;;;;;;;;;;5011201;28;20088;-63
2022/12/15 07:21:56;;;;;;;33.73;10.90;;;;;;;;;;5011746;28;20145;-62
2022/12/15 07:24:21;;;;;;;27.75;11.15;;;;;;;;;;5012015;28;20034;-63
2022/12/15 07:26:46;;;;;;;29.17;11.03;;;;;;;;;;5014489;28;20039;-63
2022/12/15 07:29:12;;;;;;;31.07;11.00;;;;;;;;;;5012773;28;20076;-62
2022/12/15 07:31:37;;;;;;;32.40;11.77;;;;;;;;;;5011755;28;20109;-63
2022/12/15 07:34:02;;;;;;;32.00;11.17;;;;;;;;;;5013826;28;20480;-62
2022/12/15 07:36:27;;;;;;;31.50;10.90;;;;;;;;;;5012219;28;20396;-63
2022/12/15 07:38:56;;;;;;;33.13;11.97;;;;;;;;;;5011854;28;20041;-62
2022/12/15 07:41:21;;;;;;;28.92;10.88;;;;;;;;;;5011168;28;20459;-63
2022/12/15 07:43:47;;;;;;;28.27;10.23;;;;;;;;;;5012754;28;20025;-63
2022/12/15 07:46:12;;;;;;;28.73;9.95;;;;;;;;;;5020809;28;20464;-62
2022/12/15 07:48:37;;;;;;;26.40;9.93;;;;;;;;;;5013214;28;20026;-63
2022/12/15 07:51:06;;;;;;;29.63;10.57;;;;;;;;;;5007432;28;20030;-64
2022/12/15 07:53:31;;;;;;;28.67;9.95;;;;;;;;;;5014127;28;20067;-62
2022/12/15 07:55:57;;;;;;;29.03;10.10;;;;;;;;;;5007765;28;20497;-62
2022/12/15 07:58:23;;;;;;;27.70;9.75;;;;;;;;;;5006188;28;20041;-62
2022/12/15 08:00:48;;;;;;;25.90;9.85;;;;;;;;;;5032533;28;20021;-62
2022/12/15 08:03:14;;;;;;;30.37;10.87;;;;;;;;;;5032329;28;20026;-62
2022/12/15 08:05:39;;;;;;;29.57;10.13;;;;;;;;;;5021691;28;20061;-62
2022/12/15 08:08:04;;;;;;;31.90;10.00;;;;;;;;;;5012615;28;20108;-62
2022/12/15 08:10:29;;;;;;;29.60;10.20;;;;;;;;;;5012490;28;20439;-62
2022/12/15 08:12:54;;;;;;;30.43;9.60;;;;;;;;;;5012230;28;20029;-63
2022/12/15 08:15:20;;;;;;;27.30;10.10;;;;;;;;;;5011427;28;20052;-63
2022/12/15 08:17:45;;;;;;;28.97;10.17;;;;;;;;;;5012208;28;20500;-61
2022/12/15 08:20:10;;;;;;;26.40;9.35;;;;;;;;;;5012679;28;20037;-62
2022/12/15 08:22:35;;;;;;;28.67;10.13;;;;;;;;;;5012351;28;20500;-62
2022/12/15 08:25:00;;;;;;;29.17;10.17;;;;;;;;;;5012277;28;20030;-62
2022/12/15 08:27:26;;;;;;;27.77;9.90;;;;;;;;;;5011522;28;20040;-62
2022/12/15 08:29:51;;;;;;;24.93;9.40;;;;;;;;;;5010221;28;20412;-63
2022/12/15 08:32:16;;;;;;;27.63;10.40;;;;;;;;;;5011842;28;20129;-63
2022/12/15 08:34:41;;;;;;;32.43;10.40;;;;;;;;;;5012069;28;20559;-63
2022/12/15 08:37:07;;;;;;;29.07;10.30;;;;;;;;;;5010684;28;20033;-63
2022/12/15 08:39:32;;;;;;;30.93;10.77;;;;;;;;;;5011982;28;20032;-63
2022/12/15 08:41:57;;;;;;;25.50;9.00;;;;;;;;;;5011920;28;20034;-63
2022/12/15 08:44:22;;;;;;;26.97;10.10;;;;;;;;;;5011949;28;20022;-64
2022/12/15 08:46:47;;;;;;;30.67;10.27;;;;;;;;;;5010745;28;20084;-63
2022/12/15 08:49:12;;;;;;;29.42;10.25;;;;;;;;;;5011688;28;20013;-63
2022/12/15 08:51:37;;;;;;;27.03;9.73;;;;;;;;;;5011814;28;20049;-63
2022/12/15 08:54:03;;;;;;;28.63;9.80;;;;;;;;;;5011665;28;20018;-63
2022/12/15 08:56:28;;;;;;;26.80;9.53;;;;;;;;;;5009378;28;20099;-63
2022/12/15 08:58:57;;;;;;;26.90;9.47;;;;;;;;;;5010272;28;20025;-63
2022/12/15 09:01:23;;;;;;;28.38;9.52;;;;;;;;;;5011622;28;20461;-63
2022/12/15 09:03:49;;;;;;;29.17;10.02;;;;;;;;;;5011487;28;20041;-63
2022/12/15 09:06:16;;;;;;;28.90;10.10;;;;;;;;;;5010737;28;20867;-63
2022/12/15 09:08:41;;;;;;;;;;;;;;;;;;5010909;28;20025;-61
2022/12/15 09:11:07;;;;;;;25.65;10.18;;;;;;;;;;5011487;28;19905;-62
2022/12/15 09:13:32;;;;;;;30.17;10.73;;;;;;;;;;5011042;28;20025;-62
2022/12/15 09:15:58;;;;;;;28.57;9.30;;;;;;;;;;5011242;28;20084;-62
2022/12/15 09:18:24;;;;;;;30.67;10.00;;;;;;;;;;5010399;28;20432;-62
2022/12/15 09:20:49;;;;;;;28.37;10.40;;;;;;;;;;5010906;28;20022;-62
2022/12/15 09:23:14;;;;;;;27.65;9.52;;;;;;;;;;5011449;28;20014;-62
2022/12/15 09:25:39;;;;;;;27.13;10.10;;;;;;;;;;5011153;28;20041;-62
2022/12/15 09:28:04;;;;;;;38.43;10.70;;;;;;;;;;5010251;28;20025;-62
2022/12/15 09:30:29;;;;;;;32.83;10.20;;;;;;;;;;5011098;28;20432;-62
2022/12/15 09:32:55;;;;;;;32.47;11.00;;;;;;;;;;5010754;28;20029;-62
2022/12/15 09:35:20;;;;;;;27.83;9.33;;;;;;;;;;5011234;28;20105;-62
2022/12/15 09:37:45;;;;;;;26.83;9.67;;;;;;;;;;5010163;28;20022;-63
2022/12/15 09:40:11;;;;;;;27.40;9.37;;;;;;;;;;5010877;28;20061;-62
2022/12/15 09:42:37;;;;;;;25.33;9.40;;;;;;;;;;5010573;28;20120;-63
2022/12/15 09:45:14;;;;;;;28.48;10.45;;;;;;;;;;5011133;28;20105;-62
2022/12/15 09:47:43;;;;;;;31.42;11.35;;;;;;;;;;5010814;28;20363;-62
2022/12/15 09:50:10;;;;;;;26.80;10.23;;;;;;;;;;5006224;28;20030;-62
2022/12/15 09:52:44;;;;;;;27.42;9.77;;;;;;;;;;5010674;28;20014;-62
2022/12/15 09:55:28;;;;;;;32.80;11.05;;;;;;;;;;5010881;28;20540;-62
2022/12/15 09:57:53;;;;;;;;;;;;;;;;;;5011134;28;20029;-64
2022/12/15 10:00:29;;;;;;;28.27;10.43;;;;;;;;;;5009606;28;19932;-61
2022/12/15 10:03:03;;;;;;;27.23;9.85;;;;;;;;;;5010520;28;20022;-62
2022/12/15 10:05:28;;;;;;;28.17;9.65;;;;;;;;;;5010887;28;20477;-62
2022/12/15 10:07:53;;;;;;;26.30;9.37;;;;;;;;;;5010578;28;20079;-62
2022/12/15 10:10:25;;;;;;;27.97;10.80;;;;;;;;;;5009390;28;20101;-62
2022/12/15 10:12:53;;;;;;;26.42;9.65;;;;;;;;;;5010474;28;20029;-63
2022/12/15 10:15:21;;;;;;;30.98;11.23;;;;;;;;;;5010703;28;20485;-64
2022/12/15 10:17:50;;;;;;;29.08;10.05;;;;;;;;;;5010627;28;20037;-63
2022/12/15 10:20:20;;;;;;;29.80;11.77;;;;;;;;;;5009572;28;20052;-63
2022/12/15 10:22:46;;;;;;;32.08;12.25;;;;;;;;;;5008407;28;20045;-63
2022/12/15 10:25:21;;;;;;;30.67;11.25;;;;;;;;;;5010738;28;20104;-63
2022/12/15 10:28:21;;;;;;;31.45;13.05;;;;;;;;;;5010498;28;20145;-63
2022/12/15 10:30:51;;;;;;;33.90;12.65;;;;;;;;;;4911721;29;20468;-63
2022/12/15 10:33:18;;;;;;;35.05;12.98;;;;;;;;;;4991136;28;20566;-64
2022/12/15 10:35:44;;;;;;;32.50;12.70;;;;;;;;;;5010416;28;20045;-63
2022/12/15 10:38:16;;;;;;;34.30;12.43;;;;;;;;;;5010630;28;20029;-63
2022/12/15 10:40:41;;;;;;;34.92;13.23;;;;;;;;;;5010091;28;20034;-62
2022/12/15 10:43:12;;;;;;;32.35;13.52;;;;;;;;;;5009600;28;22005;-63
2022/12/15 10:45:37;;;;;;;33.60;14.32;;;;;;;;;;5010316;28;20030;-63
2022/12/15 10:48:05;;;;;;;33.25;13.23;;;;;;;;;;5010168;28;20101;-63
2022/12/15 10:50:31;;;;;;;32.78;13.13;;;;;;;;;;5010203;28;20101;-63
2022/12/15 10:52:56;;;;;;;36.45;12.73;;;;;;;;;;5010274;28;20448;-63
2022/12/15 10:55:38;;;;;;;39.28;13.82;;;;;;;;;;5009502;28;20026;-63
2022/12/15 10:58:17;;;;;;;33.90;13.15;;;;;;;;;;5009060;28;20396;-64
2022/12/15 11:00:43;;;;;;;33.03;13.15;;;;;;;;;;5009596;28;20021;-63
2022/12/15 11:03:35;;;;;;;33.08;13.10;;;;;;;;;;5013984;28;20371;-63
2022/12/15 11:06:00;;;;;;;34.22;13.43;;;;;;;;;;5009071;28;20044;-63
2022/12/15 11:08:27;;;;;;;34.97;12.03;;;;;;;;;;5012761;28;20018;-63
2022/12/15 11:13:38;;;;;;;34.55;14.02;;;;;;;;;;5013547;28;20048;-64
2022/12/15 11:16:12;;;;;;;36.07;12.53;;;;;;;;;;5013552;28;20448;-64
2022/12/15 11:18:41;;;;;;;33.63;12.65;;;;;;;;;;5013332;28;20594;-64
2022/12/15 11:21:11;;;;;;;32.50;12.15;;;;;;;;;;5013484;28;20026;-62
2022/12/15 11:23:47;;;;;;;33.95;12.73;;;;;;;;;;5013311;28;20030;-62
2022/12/15 11:26:21;;;;;;;44.00;14.23;;;;;;;;;;5013362;28;20026;-62
2022/12/15 11:28:49;;;;;;;33.53;13.23;;;;;;;;;;5012476;28;20113;-63
2022/12/15 11:31:14;;;;;;;37.22;13.32;;;;;;;;;;5011147;28;20024;-63
2022/12/15 11:33:39;;;;;;;29.25;11.43;;;;;;;;;;5012852;28;20094;-62
2022/12/15 11:36:08;;;;;;;33.27;11.90;;;;;;;;;;5013111;28;20124;-63
2022/12/15 11:38:40;;;;;;;35.45;13.98;;;;;;;;;;5013370;28;20022;-64
2022/12/15 11:41:10;;;;;;;33.20;12.65;;;;;;;;;;5011100;28;20018;-62
2022/12/15 11:43:45;;;;;;;34.20;12.30;;;;;;;;;;5012694;28;20068;-62
2022/12/15 11:46:13;;;;;;;31.95;12.15;;;;;;;;;;5012733;28;20571;-62
2022/12/15 11:48:50;;;;;;;31.80;11.38;;;;;;;;;;5012750;28;20022;-62
2022/12/15 11:51:19;;;;;;;36.90;12.20;;;;;;;;;;5012172;28;20018;-62
2022/12/15 11:54:01;;;;;;;37.08;13.80;;;;;;;;;;5012505;28;20104;-62
2022/12/15 11:56:35;;;;;;;32.70;12.40;;;;;;;;;;5012833;28;20030;-62
2022/12/15 11:59:19;;;;;;;33.10;12.48;;;;;;;;;;5012125;28;20022;-62
2022/12/15 12:01:50;;;;;;;31.63;12.40;;;;;;;;;;5011761;28;20049;-61
2022/12/15 12:04:23;;;;;;;33.08;12.60;;;;;;;;;;5012736;28;20109;-61
2022/12/15 12:06:51;;;;;;;27.25;11.63;;;;;;;;;;5012342;28;20508;-63
2022/12/15 12:09:23;;;;;;;31.55;12.15;;;;;;;;;;5012278;28;20034;-62
2022/12/15 12:12:03;;;;;;;34.38;12.40;;;;;;;;;;5010584;28;20018;-62
2022/12/15 12:14:37;;;;;;;30.23;11.38;;;;;;;;;;5012355;28;20505;-62
2022/12/15 12:17:14;;;;;;;29.10;11.20;;;;;;;;;;5012296;28;20502;-62
2022/12/15 12:19:53;;;;;;;32.65;11.98;;;;;;;;;;5012357;28;20032;-62
2022/12/15 12:22:31;;;;;;;34.03;13.70;;;;;;;;;;5011006;28;20018;-62
2022/12/15 12:24:56;;;;;;;32.78;12.98;;;;;;;;;;5011467;28;20029;-62
2022/12/15 12:27:21;;;;;;;28.77;11.90;;;;;;;;;;5012061;28;20052;-62
2022/12/15 12:29:50;;;;;;;30.43;12.37;;;;;;;;;;5011906;28;20439;-61
2022/12/15 12:32:23;;;;;;;29.77;11.75;;;;;;;;;;5011204;28;20125;-62
2022/12/15 12:35:12;;;;;;;34.15;12.60;;;;;;;;;;5011939;28;20065;-61
2022/12/15 12:37:41;;;;;;;28.42;12.27;;;;;;;;;;5011779;28;20033;-62
2022/12/15 12:40:25;;;;;;;36.40;12.40;;;;;;;;;;5012013;28;20121;-62
2022/12/15 12:42:52;;;;;;;31.42;12.25;;;;;;;;;;5010937;28;20024;-62
2022/12/15 12:45:18;;;;;;;34.35;13.55;;;;;;;;;;5011749;28;20034;-62
2022/12/15 12:47:46;;;;;;;34.00;12.63;;;;;;;;;;5011648;28;20025;-62
2022/12/15 12:50:21;;;;;;;32.65;12.90;;;;;;;;;;5011874;28;20148;-62
2022/12/15 12:52:49;;;;;;;33.63;13.75;;;;;;;;;;5011347;28;20022;-62
2022/12/15 12:55:17;;;;;;;36.28;11.90;;;;;;;;;;5010933;28;20025;-62
2022/12/15 12:57:43;;;;;;;33.03;12.95;;;;;;;;;;5011526;28;20397;-62
2022/12/15 13:00:28;;;;;;;36.35;12.57;;;;;;;;;;5010006;28;20037;-63
2022/12/15 13:02:55;;;;;;;36.97;13.63;;;;;;;;;;5011219;28;20065;-62
2022/12/15 13:05:22;;;;;;;34.42;13.45;;;;;;;;;;5010594;28;20112;-62
2022/12/15 13:07:53;;;;;;;34.40;12.80;;;;;;;;;;5011315;28;20029;-63
2022/12/15 13:10:20;;;;;;;32.83;12.55;;;;;;;;;;5010761;28;20022;-63
2022/12/15 13:12:46;;;;;;;32.80;12.27;;;;;;;;;;5010176;28;20156;-62
2022/12/15 13:15:17;;;;;;;33.35;12.80;;;;;;;;;;5009353;28;20095;-62
2022/12/15 13:17:44;;;;;;;36.83;13.45;;;;;;;;;;5010624;28;20018;-61
2022/12/15 13:20:17;;;;;;;38.47;13.45;;;;;;;;;;5008269;28;20029;-62
2022/12/15 13:22:43;;;;;;;36.55;13.48;;;;;;;;;;5010095;28;20049;-60
2022/12/15 13:25:25;;;;;;;34.33;13.60;;;;;;;;;;5009205;28;20038;-61
2022/12/15 13:27:51;;;;;;;34.50;13.20;;;;;;;;;;4991653;28;20489;-62
2022/12/15 13:30:16;;;;;;;35.85;12.55;;;;;;;;;;4998770;28;20045;-63
2022/12/15 13:32:45;;;;;;;32.60;12.45;;;;;;;;;;5007052;28;20029;-62
2022/12/15 13:35:13;;;;;;;36.10;14.25;;;;;;;;;;5001363;28;20029;-62
2022/12/15 13:37:46;;;;;;;34.28;12.27;;;;;;;;;;5004994;28;20034;-62
2022/12/15 13:40:32;;;;;;;33.67;13.50;;;;;;;;;;5003951;28;20647;-62
2022/12/15 13:42:59;;;;;;;34.40;12.63;;;;;;;;;;4990198;28;20041;-62
2022/12/15 13:45:36;;;;;;;35.75;13.23;;;;;;;;;;5006608;28;20037;-62
2022/12/15 13:48:06;;;;;;;34.28;12.48;;;;;;;;;;5005239;28;20095;-62
2022/12/15 13:50:43;;;;;;;37.90;13.18;;;;;;;;;;5007216;28;20115;-62
2022/12/15 13:53:13;;;;;;;34.60;13.40;;;;;;;;;;5006564;28;20025;-61
2022/12/15 13:55:45;;;;;;;41.05;14.00;;;;;;;;;;5007183;28;20449;-62
2022/12/15 13:58:14;;;;;;;33.45;12.95;;;;;;;;;;5004405;28;20033;-62
2022/12/15 14:00:47;;;;;;;36.25;13.68;;;;;;;;;;5005949;28;20022;-62
2022/12/15 14:03:33;;;;;;;39.80;14.25;;;;;;;;;;5004182;28;20566;-62
2022/12/15 14:05:58;;;;;;;39.25;14.90;;;;;;;;;;5009954;28;20037;-61
2022/12/15 14:08:24;;;;;;;42.00;15.90;;;;;;;;;;5003929;28;20021;-62
2022/12/15 14:10:54;;;;;;;39.80;15.15;;;;;;;;;;5005932;28;20014;-63
2022/12/15 14:13:28;;;;;;;41.53;13.80;;;;;;;;;;5004036;28;20451;-62
2022/12/15 14:15:59;;;;;;;43.67;15.70;;;;;;;;;;5006948;28;20026;-63
2022/12/15 14:18:30;;;;;;;41.17;15.43;;;;;;;;;;5002857;28;20073;-62
2022/12/15 14:20:56;;;;;;;40.35;15.00;;;;;;;;;;5000067;28;20060;-62
2022/12/15 14:23:23;;;;;;;41.90;16.20;;;;;;;;;;5006095;28;20053;-63
2022/12/15 14:26:05;;;;;;;43.78;16.08;;;;;;;;;;5003953;28;20022;-62
2022/12/15 14:28:32;;;;;;;42.35;15.00;;;;;;;;;;5005898;28;20044;-62
2022/12/15 14:30:58;;;;;;;45.50;16.73;;;;;;;;;;5003561;28;20393;-62
2022/12/15 14:33:24;;;;;;;42.20;16.58;;;;;;;;;;5005624;28;20468;-63
2022/12/15 14:35:52;;;;;;;42.58;14.68;;;;;;;;;;5004927;28;20033;-62
2022/12/15 14:38:20;;;;;;;45.05;15.88;;;;;;;;;;5008677;28;20109;-62
2022/12/15 14:40:48;;;;;;;46.78;16.80;;;;;;;;;;5006793;28;20097;-62
2022/12/15 14:43:18;;;;;;;48.47;17.10;;;;;;;;;;5006907;28;20033;-62
2022/12/15 14:45:44;;;;;;;43.42;15.52;;;;;;;;;;5005727;28;20022;-62
2022/12/15 14:48:09;;;;;;;44.63;16.03;;;;;;;;;;5009960;28;20032;-62
2022/12/15 14:50:34;;;;;;;45.37;15.70;;;;;;;;;;5009075;28;20530;-62
2022/12/15 14:53:12;;;;;;;46.13;17.73;;;;;;;;;;5009361;28;20025;-61
2022/12/15 14:55:38;;;;;;;46.42;16.75;;;;;;;;;;5010506;28;20025;-62
2022/12/15 14:58:23;;;;;;;43.72;17.45;;;;;;;;;;5010442;28;20036;-63
2022/12/15 15:00:50;;;;;;;45.22;16.75;;;;;;;;;;5009549;28;20053;-63
2022/12/15 15:03:17;;;;;;;48.10;18.13;;;;;;;;;;5013375;28;20034;-63
2022/12/15 15:05:43;;;;;;;43.88;17.20;;;;;;;;;;5012717;28;20022;-66
2022/12/15 15:08:12;;;;;;;47.70;16.77;;;;;;;;;;5013106;28;20013;-63
2022/12/15 15:10:37;;;;;;;41.90;15.60;;;;;;;;;;5013214;28;20381;-62
2022/12/15 15:13:02;;;;;;;47.45;17.15;;;;;;;;;;5013095;28;20022;-62
2022/12/15 15:15:27;;;;;;;49.77;17.30;;;;;;;;;;5013207;28;20045;-62
2022/12/15 15:17:55;;;;;;;49.80;16.87;;;;;;;;;;5013200;28;20022;-63
2022/12/15 15:20:21;;;;;;;44.95;16.83;;;;;;;;;;5010977;28;20109;-62
2022/12/15 15:23:00;;;;;;;50.50;16.70;;;;;;;;;;5010481;28;20101;-63
2022/12/15 15:25:31;;;;;;;47.97;17.63;;;;;;;;;;5013289;28;20032;-62
2022/12/15 15:28:11;;;;;;;43.05;14.57;;;;;;;;;;5012821;28;20030;-61
2022/12/15 15:30:56;;;;;;;48.63;17.30;;;;;;;;;;5011402;28;20033;-62
2022/12/15 15:33:22;;;;;;;42.15;15.13;;;;;;;;;;5012849;28;20599;-62
2022/12/15 15:35:51;;;;;;;47.83;17.20;;;;;;;;;;5013023;28;20026;-61
2022/12/15 15:38:19;;;;;;;42.83;16.33;;;;;;;;;;5012114;28;20088;-63
2022/12/15 15:40:48;;;;;;;49.08;17.58;;;;;;;;;;5010405;28;20576;-62
2022/12/15 15:43:14;;;;;;;45.03;15.93;;;;;;;;;;5012936;28;20080;-62
2022/12/15 15:45:40;;;;;;;49.55;17.63;;;;;;;;;;5012513;28;20021;-63
2022/12/15 15:48:05;;;;;;;51.15;17.65;;;;;;;;;;5012473;28;20036;-63
2022/12/15 15:50:31;;;;;;;39.87;15.17;;;;;;;;;;5012495;28;20105;-63
2022/12/15 15:52:56;;;;;;;49.25;16.48;;;;;;;;;;5012533;28;20979;-63
2022/12/15 15:55:30;;;;;;;44.75;15.30;;;;;;;;;;5012714;28;20017;-64
2022/12/15 15:57:55;;;;;;;47.58;17.45;;;;;;;;;;5010807;28;20401;-64
2022/12/15 16:00:22;;;;;;;45.40;15.40;;;;;;;;;;5010771;28;20046;-65
2022/12/15 16:02:47;;;;;;;41.95;15.05;;;;;;;;;;5010558;28;20036;-63
2022/12/15 16:05:13;;;;;;;44.37;15.93;;;;;;;;;;5011814;28;20026;-62
2022/12/15 16:07:38;;;;;;;43.13;16.67;;;;;;;;;;5010633;28;20026;-62
2022/12/15 16:10:05;;;;;;;44.17;15.70;;;;;;;;;;5010332;28;20064;-62
2022/12/15 16:12:30;;;;;;;;;;;;;;;;;;5011907;28;20483;-63
2022/12/15 16:14:56;;;;;;;36.78;14.68;;;;;;;;;;5010769;28;20407;-63
2022/12/15 16:17:21;;;;;;;44.13;16.13;;;;;;;;;;5006571;28;20038;-63
2022/12/15 16:19:47;;;;;;;47.37;15.70;;;;;;;;;;5009759;28;20506;-62
2022/12/15 16:22:15;;;;;;;43.50;14.90;;;;;;;;;;5003767;28;20598;-62
2022/12/15 16:24:40;;;;;;;42.72;15.13;;;;;;;;;;5008698;28;20033;-63
2022/12/15 16:27:08;;;;;;;40.75;13.70;;;;;;;;;;5007934;28;20033;-65
2022/12/15 16:29:33;;;;;;;39.15;15.23;;;;;;;;;;5007876;28;20053;-63
2022/12/15 16:31:59;;;;;;;43.47;14.97;;;;;;;;;;4999279;28;20131;-65
2022/12/15 16:34:24;;;;;;;42.67;16.00;;;;;;;;;;5006332;28;20026;-64
2022/12/15 16:36:49;;;;;;;42.30;16.27;;;;;;;;;;5005680;28;20461;-64
2022/12/15 16:39:25;;;;;;;43.25;16.42;;;;;;;;;;5007029;28;20033;-64
2022/12/15 16:41:51;;;;;;;49.88;16.65;;;;;;;;;;5010597;28;20041;-63
2022/12/15 16:44:17;;;;;;;49.25;16.00;;;;;;;;;;5011060;28;20619;-62
2022/12/15 16:46:42;;;;;;;47.15;17.33;;;;;;;;;;5009212;28;20040;-63
2022/12/15 16:49:07;;;;;;;44.47;17.67;;;;;;;;;;5011601;28;20026;-63
2022/12/15 16:51:35;;;;;;;55.42;18.58;;;;;;;;;;5012138;28;20028;-63